createdAt,value
2023-03-06T00:00:35.549Z,8.75
2023-03-06T00:03:03.150Z,11.02
2023-03-06T00:05:30.758Z,9.82
2023-03-06T00:07:58.358Z,9.63
2023-03-06T00:10:27.181Z,9.02
2023-03-06T00:12:55.071Z,9.10
2023-03-06T00:15:24.282Z,9.43
2023-03-06T00:17:52.131Z,9.52
2023-03-06T00:20:19.757Z,10.18
2023-03-06T00:22:47.350Z,9.18
2023-03-06T00:25:15.870Z,4.78
2023-03-06T00:27:43.469Z,6.45
2023-03-06T00:30:12.857Z,6.18
2023-03-06T00:32:42.017Z,6.20
2023-03-06T00:35:09.887Z,8.73
2023-03-06T00:37:37.449Z,7.20
2023-03-06T00:40:05.790Z,6.20
2023-03-06T00:42:33.326Z,6.18
2023-03-06T00:45:00.881Z,5.40
2023-03-06T00:47:28.416Z,5.65
2023-03-06T00:49:57.230Z,6.03
2023-03-06T00:52:24.744Z,5.80
2023-03-06T00:54:52.324Z,4.70
2023-03-06T00:57:19.819Z,6.25
2023-03-06T00:59:47.304Z,6.40
2023-03-06T01:02:14.865Z,5.72
2023-03-06T01:04:42.555Z,6.65
2023-03-06T01:07:11.462Z,6.68
2023-03-06T01:09:39.041Z,6.28
2023-03-06T01:12:06.772Z,6.55
2023-03-06T01:14:34.326Z,5.65
2023-03-06T01:17:01.815Z,5.97
2023-03-06T01:19:29.324Z,7.68
2023-03-06T01:21:56.818Z,7.07
2023-03-06T01:24:25.950Z,6.93
2023-03-06T01:26:53.449Z,5.50
2023-03-06T01:29:21.007Z,6.25
2023-03-06T01:31:48.537Z,6.53
2023-03-06T01:34:16.062Z,5.93
2023-03-06T01:36:43.541Z,6.95
2023-03-06T01:39:11.298Z,7.55
2023-03-06T01:41:40.146Z,6.60
2023-03-06T01:44:07.630Z,6.45
2023-03-06T01:46:41.889Z,7.00
2023-03-06T01:49:15.394Z,7.40
2023-03-06T01:51:46.342Z,8.40
2023-03-06T01:54:16.493Z,7.63
2023-03-06T01:56:47.388Z,6.68
2023-03-06T01:59:14.989Z,8.93
2023-03-06T02:01:42.726Z,8.48
2023-03-06T02:04:10.967Z,8.88
2023-03-06T02:06:39.537Z,11.73
2023-03-06T02:09:07.466Z,8.00
2023-03-06T02:11:35.076Z,8.48
2023-03-06T02:14:04.064Z,7.97
2023-03-06T02:16:33.407Z,10.55
2023-03-06T02:19:01.923Z,7.47
2023-03-06T02:21:31.761Z,10.00
2023-03-06T02:24:03.180Z,9.73
2023-03-06T02:26:32.651Z,10.27
2023-03-06T02:29:00.110Z,10.63
2023-03-06T02:31:28.926Z,7.85
2023-03-06T02:34:07.496Z,9.98
2023-03-06T02:36:36.265Z,7.80
2023-03-06T02:39:04.062Z,11.13
2023-03-06T02:41:32.991Z,9.02
2023-03-06T02:44:00.509Z,7.85
2023-03-06T02:46:28.013Z,9.40
2023-03-06T02:48:55.547Z,9.98
2023-03-06T02:51:23.565Z,8.13
2023-03-06T02:53:51.064Z,9.48
2023-03-06T02:56:19.207Z,9.75
2023-03-06T02:58:48.389Z,8.27
2023-03-06T03:01:16.241Z,9.98
2023-03-06T03:03:43.742Z,10.30
2023-03-06T03:06:11.235Z,5.22
2023-03-06T03:08:38.810Z,7.38
2023-03-06T03:11:06.538Z,6.32
2023-03-06T03:13:34.056Z,6.72
2023-03-06T03:16:03.653Z,6.25
2023-03-06T03:18:31.228Z,6.15
2023-03-06T03:20:58.732Z,9.43
2023-03-06T03:23:26.527Z,6.38
2023-03-06T03:25:54.005Z,5.07
2023-03-06T03:28:21.491Z,4.13
2023-03-06T03:30:49.024Z,5.90
2023-03-06T03:33:17.903Z,7.68
2023-03-06T03:35:45.421Z,7.15
2023-03-06T03:38:12.937Z,4.75
2023-03-06T03:40:40.423Z,4.28
2023-03-06T03:43:07.992Z,6.28
2023-03-06T03:45:35.458Z,7.13
2023-03-06T03:48:02.995Z,5.85
2023-03-06T03:50:31.826Z,5.18
2023-03-06T03:52:59.308Z,4.93
2023-03-06T03:55:27.167Z,9.95
2023-03-06T03:57:54.713Z,6.03
2023-03-06T04:00:22.445Z,6.10
2023-03-06T04:02:49.952Z,9.85
2023-03-06T04:05:17.873Z,7.00
2023-03-06T04:07:46.769Z,3.40
2023-03-06T04:10:14.567Z,5.07
2023-03-06T04:12:42.049Z,4.65
2023-03-06T04:15:09.863Z,6.75
2023-03-06T04:17:38.044Z,6.00
2023-03-06T04:20:05.949Z,4.78
2023-03-06T04:22:33.446Z,8.93
2023-03-06T04:25:02.399Z,5.03
2023-03-06T04:27:29.901Z,4.38
2023-03-06T04:29:57.461Z,6.25
2023-03-06T04:32:25.291Z,7.00
2023-03-06T04:34:52.866Z,7.07
2023-03-06T04:37:21.333Z,6.57
2023-03-06T04:39:48.890Z,9.23
2023-03-06T04:42:17.783Z,4.47
2023-03-06T04:44:45.457Z,5.95
2023-03-06T04:47:13.239Z,5.28
2023-03-06T04:49:40.857Z,5.50
2023-03-06T04:52:08.474Z,3.55
2023-03-06T04:54:35.950Z,5.00
2023-03-06T04:57:03.418Z,4.43
2023-03-06T04:59:32.245Z,3.60
2023-03-06T05:01:59.731Z,4.25
2023-03-06T05:04:27.283Z,5.93
2023-03-06T05:06:54.787Z,5.03
2023-03-06T05:09:22.291Z,4.80
2023-03-06T05:11:49.814Z,5.80
2023-03-06T05:14:17.302Z,7.18
2023-03-06T05:16:46.256Z,4.45
2023-03-06T05:19:13.845Z,5.65
2023-03-06T05:21:41.328Z,5.30
2023-03-06T05:24:08.945Z,4.47
2023-03-06T05:26:36.426Z,4.25
2023-03-06T05:29:03.960Z,4.90
2023-03-06T05:31:31.538Z,3.90
2023-03-06T05:34:00.647Z,4.25
2023-03-06T05:36:28.219Z,5.68
2023-03-06T05:38:55.940Z,5.75
2023-03-06T05:41:23.476Z,6.28
2023-03-06T05:43:51.138Z,6.35
2023-03-06T05:46:18.733Z,6.53
2023-03-06T05:48:46.977Z,5.82
2023-03-06T05:51:15.996Z,5.43
2023-03-06T05:53:43.549Z,5.80
2023-03-06T05:56:11.264Z,6.47
2023-03-06T05:58:38.824Z,5.05
2023-03-06T06:01:09.842Z,5.22
2023-03-06T06:03:37.408Z,4.38
2023-03-06T06:06:05.149Z,5.78
2023-03-06T06:08:34.058Z,6.22
2023-03-06T06:11:01.859Z,5.72
2023-03-06T06:13:29.313Z,7.50
2023-03-06T06:15:56.891Z,6.32
2023-03-06T06:18:24.385Z,6.43
2023-03-06T06:20:51.889Z,6.68
2023-03-06T06:23:19.409Z,5.97
2023-03-06T06:25:48.261Z,4.85
2023-03-06T06:28:15.792Z,5.80
2023-03-06T06:30:43.326Z,5.45
2023-03-06T06:33:10.856Z,6.28
2023-03-06T06:35:38.394Z,5.35
2023-03-06T06:38:05.907Z,5.72
2023-03-06T06:40:33.476Z,5.75
2023-03-06T06:43:02.343Z,5.53
2023-03-06T06:45:29.823Z,5.13
2023-03-06T06:47:57.477Z,6.15
2023-03-06T06:50:25.043Z,4.28
2023-03-06T06:52:52.550Z,5.78
2023-03-06T06:55:20.056Z,5.60
2023-03-06T06:57:47.609Z,5.80
2023-03-06T07:00:17.914Z,5.97
2023-03-06T07:02:48.985Z,4.70
2023-03-06T07:05:16.774Z,4.53
2023-03-06T07:07:44.861Z,6.30
2023-03-06T07:10:13.677Z,6.15
2023-03-06T07:12:41.191Z,7.30
2023-03-06T07:15:09.464Z,6.18
2023-03-06T07:17:38.341Z,5.13
2023-03-06T07:20:08.248Z,4.93
2023-03-06T07:22:50.004Z,5.50
2023-03-06T07:25:18.898Z,5.07
2023-03-06T07:27:52.693Z,7.93
2023-03-06T07:30:21.286Z,6.40
2023-03-06T07:32:52.747Z,7.25
2023-03-06T07:35:21.096Z,9.18
2023-03-06T07:37:48.755Z,7.38
2023-03-06T07:40:16.369Z,7.20
2023-03-06T07:42:44.100Z,6.63
2023-03-06T07:45:12.691Z,5.65
2023-03-06T07:47:40.421Z,6.38
2023-03-06T07:50:09.923Z,6.35
2023-03-06T07:52:37.653Z,7.40
2023-03-06T07:55:05.536Z,9.18
2023-03-06T07:57:33.103Z,6.95
2023-03-06T08:00:00.596Z,6.93
2023-03-06T08:02:28.150Z,7.25
2023-03-06T08:04:56.167Z,5.97
2023-03-06T08:07:25.044Z,8.32
2023-03-06T08:09:52.542Z,5.93
2023-03-06T08:12:20.016Z,8.95
2023-03-06T08:14:47.572Z,7.25
2023-03-06T08:17:15.114Z,7.20
2023-03-06T08:19:42.607Z,6.47
2023-03-06T08:22:11.092Z,6.45
2023-03-06T08:24:39.926Z,6.40
2023-03-06T08:27:07.489Z,4.72
2023-03-06T08:29:35.073Z,5.43
2023-03-06T08:32:02.638Z,7.28
2023-03-06T08:34:30.353Z,5.50
2023-03-06T08:36:57.932Z,11.43
2023-03-06T08:39:25.450Z,5.53
2023-03-06T08:41:54.383Z,4.78
2023-03-06T08:44:21.919Z,4.57
2023-03-06T08:46:49.506Z,5.10
2023-03-06T08:49:17.020Z,5.00
2023-03-06T08:51:44.675Z,5.22
2023-03-06T08:54:13.050Z,6.13
2023-03-06T08:56:40.579Z,4.95
2023-03-06T08:59:10.432Z,7.38
2023-03-06T09:01:38.882Z,6.28
2023-03-06T09:04:07.762Z,5.60
2023-03-06T09:06:36.668Z,5.38
2023-03-06T09:09:04.635Z,7.22
2023-03-06T09:11:32.312Z,7.10
2023-03-06T09:13:59.957Z,6.65
2023-03-06T09:16:29.012Z,5.70
2023-03-06T09:18:57.808Z,4.43
2023-03-06T09:21:26.172Z,4.00
2023-03-06T09:23:53.810Z,6.10
2023-03-06T09:26:21.363Z,3.28
2023-03-06T09:28:48.938Z,5.32
2023-03-06T09:31:17.428Z,3.45
2023-03-06T09:33:46.516Z,4.78
2023-03-06T09:36:15.596Z,3.30
2023-03-06T09:38:43.154Z,3.15
2023-03-06T09:41:19.286Z,5.65
2023-03-06T09:43:47.863Z,4.13
2023-03-06T09:46:20.133Z,2.47
2023-03-06T09:48:55.338Z,6.07
2023-03-06T09:51:26.365Z,7.15
2023-03-06T09:53:58.831Z,6.97
2023-03-06T09:56:30.994Z,3.35
2023-03-06T09:59:03.067Z,3.58
2023-03-06T10:01:32.938Z,3.58
2023-03-06T10:04:07.843Z,3.90
2023-03-06T10:06:36.057Z,4.25
2023-03-06T10:09:06.550Z,3.88
2023-03-06T10:11:37.523Z,2.38
2023-03-06T10:14:13.149Z,2.53
2023-03-06T10:16:41.056Z,3.63
2023-03-06T10:19:13.173Z,4.40
2023-03-06T10:21:45.487Z,4.82
2023-03-06T10:24:20.167Z,2.42
2023-03-06T10:26:51.007Z,3.50
2023-03-06T10:29:28.380Z,2.40
2023-03-06T10:32:01.704Z,4.95
2023-03-06T10:34:33.507Z,5.63
2023-03-06T10:37:03.372Z,3.00
2023-03-06T10:39:31.473Z,3.50
2023-03-06T10:41:59.136Z,3.45
2023-03-06T10:44:26.702Z,3.75
2023-03-06T10:46:54.805Z,4.40
2023-03-06T10:49:24.732Z,2.78
2023-03-06T10:51:57.619Z,4.50
2023-03-06T10:54:25.170Z,5.07
2023-03-06T10:56:52.652Z,3.75
2023-03-06T10:59:22.787Z,5.18
2023-03-06T11:01:50.987Z,3.08
2023-03-06T11:04:23.877Z,3.75
2023-03-06T11:07:05.406Z,3.33
2023-03-06T11:09:33.433Z,4.82
2023-03-06T11:12:19.733Z,3.65
2023-03-06T11:14:47.365Z,3.50
2023-03-06T11:17:27.576Z,3.17
2023-03-06T11:20:08.344Z,2.55
2023-03-06T11:22:39.536Z,2.75
2023-03-06T11:25:09.053Z,6.30
2023-03-06T11:27:38.124Z,4.07
2023-03-06T11:30:07.847Z,2.80
2023-03-06T11:32:39.337Z,3.30
2023-03-06T11:35:07.713Z,2.80
2023-03-06T11:37:41.402Z,2.88
2023-03-06T11:40:14.671Z,5.38
2023-03-06T11:42:44.376Z,5.63
2023-03-06T11:45:22.575Z,2.20
2023-03-06T11:47:53.541Z,4.47
2023-03-06T11:50:22.670Z,2.70
2023-03-06T11:52:53.672Z,3.33
2023-03-06T11:55:25.673Z,3.30
2023-03-06T11:57:57.977Z,4.45
2023-03-06T12:00:31.957Z,2.65
2023-03-06T12:03:15.708Z,3.42
2023-03-06T12:05:47.254Z,3.70
2023-03-06T12:08:23.514Z,3.72
2023-03-06T12:10:52.439Z,4.82
2023-03-06T12:13:36.617Z,4.60
2023-03-06T12:16:22.797Z,3.80
2023-03-06T12:18:53.468Z,2.35
2023-03-06T12:21:26.465Z,4.28
2023-03-06T12:24:03.726Z,3.90
2023-03-06T12:26:39.987Z,2.30
2023-03-06T12:29:29.353Z,2.03
2023-03-06T12:32:02.084Z,5.75
2023-03-06T12:34:37.024Z,4.20
2023-03-06T12:37:09.775Z,5.88
2023-03-06T12:39:46.917Z,5.40
2023-03-06T12:42:23.950Z,3.22
2023-03-06T12:45:07.700Z,3.50
2023-03-06T12:47:38.211Z,4.07
2023-03-06T12:50:10.984Z,2.75
2023-03-06T12:52:38.537Z,4.13
2023-03-06T12:55:08.769Z,4.57
2023-03-06T12:57:36.292Z,2.70
2023-03-06T13:00:04.021Z,3.58
2023-03-06T13:02:40.938Z,4.20
2023-03-06T13:05:30.313Z,5.10
2023-03-06T13:08:09.635Z,4.93
2023-03-06T13:10:40.688Z,5.15
2023-03-06T13:13:29.204Z,4.75
2023-03-06T13:16:11.122Z,7.07
2023-03-06T13:18:56.510Z,2.17
2023-03-06T13:21:42.564Z,3.42
2023-03-06T13:24:15.499Z,9.30
2023-03-06T13:26:56.240Z,8.25
2023-03-06T13:29:42.097Z,9.85
2023-03-06T13:32:17.205Z,4.57
2023-03-06T13:34:46.764Z,4.13
2023-03-06T13:37:32.776Z,6.82
2023-03-06T13:40:14.781Z,4.82
2023-03-06T13:42:57.188Z,3.53
2023-03-06T13:45:27.674Z,4.93
2023-03-06T13:48:21.421Z,4.65
2023-03-06T13:50:44.793Z,3.15
2023-03-06T13:53:19.589Z,3.80
2023-03-06T13:55:50.673Z,5.43
2023-03-06T14:00:57.827Z,6.28
2023-03-06T14:03:45.397Z,5.95
2023-03-06T14:06:31.466Z,4.80
2023-03-06T14:08:59.798Z,4.65
2023-03-06T14:11:27.601Z,4.00
2023-03-06T14:13:56.078Z,4.57
2023-03-06T14:16:25.665Z,5.55
2023-03-06T14:18:54.708Z,4.78
2023-03-06T14:21:26.821Z,6.78
2023-03-06T14:24:00.574Z,2.95
2023-03-06T14:26:29.675Z,3.75
2023-03-06T14:28:58.256Z,4.80
2023-03-06T14:31:28.990Z,3.65
2023-03-06T14:33:57.235Z,3.40
2023-03-06T14:36:27.016Z,9.18
2023-03-06T14:38:56.902Z,5.53
2023-03-06T14:41:25.285Z,4.78
2023-03-06T14:43:52.853Z,4.28
2023-03-06T14:46:21.192Z,6.30
2023-03-06T14:48:50.439Z,5.03
2023-03-06T14:51:19.054Z,5.85
2023-03-06T14:53:48.089Z,4.40
2023-03-06T14:56:17.152Z,4.28
2023-03-06T14:58:48.557Z,5.82
2023-03-06T15:01:16.453Z,6.45
2023-03-06T15:03:45.374Z,3.70
2023-03-06T15:06:17.486Z,4.38
2023-03-06T15:08:46.912Z,6.28
2023-03-06T15:11:14.481Z,6.45
2023-03-06T15:13:42.015Z,4.35
2023-03-06T15:16:23.431Z,4.75
2023-03-06T15:18:58.909Z,8.52
2023-03-06T15:21:28.780Z,3.53
2023-03-06T15:23:57.309Z,3.10
2023-03-06T15:26:29.171Z,5.15
2023-03-06T15:29:08.173Z,4.03
2023-03-06T15:31:37.199Z,6.82
2023-03-06T15:34:23.472Z,2.78
2023-03-06T15:36:54.607Z,5.32
2023-03-06T15:39:32.591Z,3.10
2023-03-06T15:42:00.141Z,3.08
2023-03-06T15:44:27.728Z,4.22
2023-03-06T15:47:07.745Z,4.75
2023-03-06T15:49:37.285Z,3.97
2023-03-06T15:52:06.433Z,3.72
2023-03-06T15:54:34.078Z,5.05
2023-03-06T15:57:01.932Z,4.05
2023-03-06T15:59:32.875Z,4.32
2023-03-06T16:02:03.265Z,3.88
2023-03-06T16:04:30.883Z,4.57
2023-03-06T16:06:58.490Z,5.28
2023-03-06T16:09:27.382Z,6.18
2023-03-06T16:11:55.010Z,6.10
2023-03-06T16:14:23.913Z,4.88
2023-03-06T16:16:52.394Z,4.53
2023-03-06T16:19:26.360Z,2.72
2023-03-06T16:21:55.003Z,5.05
2023-03-06T16:24:22.553Z,4.18
2023-03-06T16:26:52.543Z,3.30
2023-03-06T16:29:20.886Z,5.32
2023-03-06T16:31:48.502Z,5.20
2023-03-06T16:34:16.680Z,3.72
2023-03-06T16:36:44.243Z,4.63
2023-03-06T16:39:13.772Z,3.10
2023-03-06T16:41:41.286Z,5.57
2023-03-06T16:44:10.876Z,3.10
2023-03-06T16:46:39.640Z,4.88
2023-03-06T16:49:07.553Z,5.97
2023-03-06T16:51:37.140Z,5.20
2023-03-06T16:54:04.756Z,4.20
2023-03-06T16:56:32.258Z,3.28
2023-03-06T16:58:59.827Z,3.95
2023-03-06T17:01:28.769Z,2.97
2023-03-06T17:03:56.349Z,4.80
2023-03-06T17:06:23.899Z,4.80
2023-03-06T17:08:52.108Z,6.75
2023-03-06T17:11:20.568Z,6.60
2023-03-06T17:13:48.172Z,6.63
2023-03-06T17:16:17.033Z,6.47
2023-03-06T17:18:46.491Z,6.70
2023-03-06T17:21:15.486Z,6.43
2023-03-06T17:23:43.094Z,6.78
2023-03-06T17:26:11.789Z,16.75
2023-03-06T17:28:39.657Z,16.00
2023-03-06T17:31:12.071Z,10.93
2023-03-06T17:33:39.804Z,5.00
2023-03-06T17:36:09.713Z,5.60
2023-03-06T17:38:37.249Z,5.22
2023-03-06T17:41:04.844Z,5.50
2023-03-06T17:43:32.366Z,4.53
2023-03-06T17:46:03.019Z,5.10
2023-03-06T17:48:30.601Z,9.93
2023-03-06T17:50:58.303Z,6.07
2023-03-06T17:53:27.292Z,8.48
2023-03-06T17:55:54.734Z,6.78
2023-03-06T17:58:22.207Z,9.68
2023-03-06T18:00:49.708Z,13.98
2023-03-06T18:03:17.259Z,15.93
2023-03-06T18:05:44.750Z,8.65
2023-03-06T18:08:12.317Z,10.43
2023-03-06T18:10:41.835Z,9.43
2023-03-06T18:13:09.633Z,10.50
2023-03-06T18:15:39.121Z,13.20
2023-03-06T18:18:06.765Z,16.73
2023-03-06T18:20:34.283Z,10.23
2023-03-06T18:23:03.680Z,9.48
2023-03-06T18:25:32.248Z,6.70
2023-03-06T18:28:01.221Z,7.95
2023-03-06T18:30:28.698Z,7.75
2023-03-06T18:32:56.218Z,8.65
2023-03-06T18:35:23.780Z,12.13
2023-03-06T18:37:52.384Z,11.75
2023-03-06T18:40:20.736Z,8.98
2023-03-06T18:42:48.955Z,7.78
2023-03-06T18:45:17.983Z,8.73
2023-03-06T18:47:45.533Z,10.50
2023-03-06T18:50:17.286Z,10.95
2023-03-06T18:52:44.789Z,7.68
2023-03-06T18:55:12.827Z,8.85
2023-03-06T18:57:40.852Z,8.73
2023-03-06T19:00:08.949Z,9.98
2023-03-06T19:02:37.801Z,7.38
2023-03-06T19:05:05.490Z,11.55
2023-03-06T19:07:33.028Z,7.95
2023-03-06T19:10:00.581Z,11.18
2023-03-06T19:12:28.015Z,8.27
2023-03-06T19:14:55.704Z,11.13
2023-03-06T19:17:24.941Z,11.00
2023-03-06T19:19:55.026Z,11.40
2023-03-06T19:22:23.077Z,9.00
2023-03-06T19:24:50.748Z,11.60
2023-03-06T19:27:18.239Z,13.57
2023-03-06T19:29:45.752Z,13.98
2023-03-06T19:32:13.348Z,9.48
2023-03-06T19:34:40.965Z,10.95
2023-03-06T19:37:10.194Z,11.10
2023-03-06T19:39:37.728Z,13.45
2023-03-06T19:42:05.490Z,12.88
2023-03-06T19:44:33.014Z,11.82
2023-03-06T19:47:00.534Z,11.57
2023-03-06T19:49:28.062Z,12.68
2023-03-06T19:51:55.624Z,13.13
2023-03-06T19:54:25.465Z,15.00
2023-03-06T19:56:53.023Z,15.93
2023-03-06T19:59:20.552Z,11.32
2023-03-06T20:01:48.112Z,15.55
2023-03-06T20:04:16.868Z,12.55
2023-03-06T20:06:45.386Z,16.42
2023-03-06T20:09:13.036Z,14.27
2023-03-06T20:11:41.999Z,16.25
2023-03-06T20:14:09.961Z,15.07
2023-03-06T20:16:37.670Z,16.27
2023-03-06T20:19:05.770Z,15.00
2023-03-06T20:21:35.293Z,14.25
2023-03-06T20:24:02.792Z,15.52
2023-03-06T20:26:30.639Z,11.90
2023-03-06T20:28:59.558Z,10.60
2023-03-06T20:31:28.241Z,13.88
2023-03-06T20:33:57.394Z,12.75
2023-03-06T20:36:27.183Z,11.90
2023-03-06T20:38:54.785Z,11.75
2023-03-06T20:41:23.027Z,12.65
2023-03-06T20:43:50.548Z,9.95
2023-03-06T20:46:20.169Z,11.38
2023-03-06T20:48:48.678Z,12.50
2023-03-06T20:51:17.575Z,13.88
2023-03-06T20:53:45.094Z,15.43
2023-03-06T20:56:13.407Z,12.55
2023-03-06T20:58:40.889Z,13.15
2023-03-06T21:01:08.450Z,12.88
2023-03-06T21:03:37.376Z,15.50
2023-03-06T21:06:05.521Z,13.63
2023-03-06T21:08:32.989Z,11.18
2023-03-06T21:11:00.584Z,13.20
2023-03-06T21:13:28.105Z,13.88
2023-03-06T21:15:55.626Z,13.88
2023-03-06T21:18:23.212Z,12.57
2023-03-06T21:20:52.121Z,13.90
2023-03-06T21:23:19.572Z,14.60
2023-03-06T21:25:50.028Z,11.55
2023-03-06T21:28:18.004Z,12.25
2023-03-06T21:30:46.326Z,16.38
2023-03-06T21:33:15.900Z,11.20
2023-03-06T21:35:43.843Z,11.43
2023-03-06T21:38:13.115Z,15.32
2023-03-06T21:40:40.685Z,11.65
2023-03-06T21:43:08.855Z,12.80
2023-03-06T21:45:36.390Z,11.77
2023-03-06T21:48:04.145Z,11.85
2023-03-06T21:50:31.664Z,12.68
2023-03-06T21:52:59.180Z,12.07
2023-03-06T21:55:28.329Z,10.95
2023-03-06T21:57:56.304Z,10.55
2023-03-06T22:00:25.644Z,11.75
2023-03-06T22:02:53.353Z,11.10
2023-03-06T22:05:20.854Z,12.75
2023-03-06T22:07:48.344Z,9.40
2023-03-06T22:10:15.917Z,10.57
2023-03-06T22:12:45.760Z,12.10
2023-03-06T22:15:13.293Z,10.52
2023-03-06T22:17:41.540Z,11.05
2023-03-06T22:20:09.665Z,12.65
2023-03-06T22:22:37.250Z,14.32
2023-03-06T22:25:05.362Z,13.90
2023-03-06T22:27:32.845Z,34.78
2023-03-06T22:30:01.720Z,21.88
2023-03-06T22:32:29.634Z,11.27
2023-03-06T22:34:57.174Z,10.60
2023-03-06T22:37:24.744Z,12.93
2023-03-06T22:39:52.256Z,10.98
2023-03-06T22:42:19.767Z,9.57
2023-03-06T22:44:47.452Z,9.00
2023-03-06T22:47:16.371Z,8.40
2023-03-06T22:49:43.917Z,10.48
2023-03-06T22:52:12.072Z,9.45
2023-03-06T22:54:40.372Z,8.88
2023-03-06T22:57:07.834Z,8.70
2023-03-06T22:59:35.321Z,8.85
2023-03-06T23:02:03.661Z,9.82
2023-03-06T23:04:32.539Z,7.85
2023-03-06T23:07:00.066Z,7.60
2023-03-06T23:09:27.560Z,8.95
2023-03-06T23:11:55.094Z,7.43
2023-03-06T23:14:22.622Z,8.68
2023-03-06T23:16:50.104Z,7.55
2023-03-06T23:19:17.751Z,8.13
2023-03-06T23:21:46.934Z,11.77
2023-03-06T23:24:14.449Z,10.45
2023-03-06T23:26:41.936Z,8.27
2023-03-06T23:29:09.527Z,11.00
2023-03-06T23:31:37.319Z,10.40
2023-03-06T23:34:05.980Z,11.02
2023-03-06T23:36:33.482Z,10.20
2023-03-06T23:39:02.371Z,9.07
2023-03-06T23:41:29.830Z,11.23
2023-03-06T23:43:57.359Z,9.63
2023-03-06T23:46:24.957Z,9.88
2023-03-06T23:48:53.006Z,12.23
2023-03-06T23:51:21.236Z,8.25
2023-03-06T23:53:53.752Z,10.10
2023-03-06T23:56:22.765Z,11.52
2023-03-06T23:58:50.305Z,10.57
